Time;durP1;ratioP1;P1;durP2;ratioP2;P2;SDS_P1;SDS_P2;PMS_P1;PMS_P2;Temp;Humidity;BMP_temperature;BMP_pressure;BME280_temperature;BME280_humidity;BME280_pressure;Samples;Min_cycle;Max_cycle;Signal;HPM_P1;HPM_P2
2022/04/10 00:00:50;;;;;;;7.70;3.03;;;;;;;;;;5073615;28;20235;-53
2022/04/10 00:03:16;;;;;;;4.80;2.30;;;;;;;;;;5073724;28;20430;-54
2022/04/10 00:05:42;;;;;;;6.77;2.40;;;;;;;;;;5073644;28;20666;-56
2022/04/10 00:08:09;;;;;;;7.20;2.30;;;;;;;;;;5073290;28;20441;-54
2022/04/10 00:10:36;;;;;;;5.83;2.30;;;;;;;;;;5073486;28;20529;-54
2022/04/10 00:13:02;;;;;;;5.63;2.50;;;;;;;;;;5073385;28;20972;-54
2022/04/10 00:15:28;;;;;;;4.87;2.67;;;;;;;;;;5072558;28;20513;-57
2022/04/10 00:17:54;;;;;;;4.50;2.33;;;;;;;;;;5064533;28;20776;-54
2022/04/10 00:20:20;;;;;;;5.87;2.30;;;;;;;;;;5053676;28;20242;-55
2022/04/10 00:22:46;;;;;;;6.33;3.10;;;;;;;;;;5053508;28;20519;-55
2022/04/10 00:25:14;;;;;;;3.57;1.90;;;;;;;;;;5053108;28;21006;-55
2022/04/10 00:27:41;;;;;;;8.33;2.80;;;;;;;;;;5051567;28;20538;-55
2022/04/10 00:30:07;;;;;;;3.83;2.33;;;;;;;;;;5053037;28;20459;-57
2022/04/10 00:32:34;;;;;;;7.33;2.40;;;;;;;;;;5053163;28;20490;-56
2022/04/10 00:35:00;;;;;;;6.73;2.53;;;;;;;;;;5052872;28;20439;-55
2022/04/10 00:37:25;;;;;;;6.83;2.77;;;;;;;;;;5053113;28;20988;-56
2022/04/10 00:39:52;;;;;;;6.33;2.63;;;;;;;;;;5053103;28;20231;-56
2022/04/10 00:42:19;;;;;;;11.60;2.73;;;;;;;;;;5053238;28;20196;-56
2022/04/10 00:44:45;;;;;;;5.17;2.77;;;;;;;;;;5053288;28;20435;-57
2022/04/10 00:47:11;;;;;;;7.80;2.60;;;;;;;;;;5052913;28;20446;-56
2022/04/10 00:49:37;;;;;;;5.70;2.67;;;;;;;;;;5052920;28;20199;-54
2022/04/10 00:52:06;;;;;;;5.37;2.90;;;;;;;;;;5052704;28;20463;-56
2022/04/10 00:54:33;;;;;;;6.93;2.63;;;;;;;;;;5052837;28;20493;-55
2022/04/10 00:57:01;;;;;;;7.43;2.83;;;;;;;;;;5052742;28;20443;-54
2022/04/10 00:59:29;;;;;;;6.63;3.47;;;;;;;;;;5052728;28;20443;-55
2022/04/10 01:01:55;;;;;;;7.40;3.17;;;;;;;;;;5052569;28;20431;-55
2022/04/10 01:04:21;;;;;;;8.10;3.27;;;;;;;;;;5052673;28;20455;-56
2022/04/10 01:06:52;;;;;;;10.30;3.40;;;;;;;;;;5052293;28;20443;-55
2022/04/10 01:09:20;;;;;;;5.77;2.50;;;;;;;;;;5052224;28;20446;-55
2022/04/10 01:11:46;;;;;;;7.40;3.00;;;;;;;;;;5052448;28;20479;-56
2022/04/10 01:14:13;;;;;;;7.23;3.03;;;;;;;;;;5052402;28;20508;-55
2022/04/10 01:16:42;;;;;;;5.97;3.07;;;;;;;;;;5052489;28;20192;-56
2022/04/10 01:19:08;;;;;;;8.73;3.03;;;;;;;;;;5052365;28;20508;-56
2022/04/10 01:21:38;;;;;;;7.47;3.40;;;;;;;;;;5052388;28;20496;-56
2022/04/10 01:24:07;;;;;;;7.97;3.60;;;;;;;;;;5052400;28;20483;-56
2022/04/10 01:26:33;;;;;;;10.93;3.43;;;;;;;;;;5052177;28;20450;-55
2022/04/10 01:28:59;;;;;;;8.93;3.90;;;;;;;;;;5052270;28;20480;-55
2022/04/10 01:31:25;;;;;;;11.43;3.20;;;;;;;;;;5052078;28;20548;-56
2022/04/10 01:33:51;;;;;;;9.73;3.67;;;;;;;;;;5051946;28;20447;-57
2022/04/10 01:36:18;;;;;;;8.67;2.97;;;;;;;;;;5052323;28;20952;-55
2022/04/10 01:38:45;;;;;;;6.03;3.00;;;;;;;;;;5052244;28;20434;-55
2022/04/10 01:41:12;;;;;;;8.73;3.10;;;;;;;;;;5052011;28;20473;-55
2022/04/10 01:43:44;;;;;;;5.10;2.93;;;;;;;;;;5052190;28;20477;-55
2022/04/10 01:46:11;;;;;;;7.27;3.37;;;;;;;;;;5050313;28;20476;-55
2022/04/10 01:48:37;;;;;;;9.30;3.57;;;;;;;;;;5052065;28;20438;-55
2022/04/10 01:51:03;;;;;;;11.20;3.13;;;;;;;;;;5051815;28;20443;-56
2022/04/10 01:53:30;;;;;;;8.30;3.43;;;;;;;;;;5052108;28;20683;-54
2022/04/10 01:55:56;;;;;;;7.43;3.20;;;;;;;;;;5051921;28;20218;-55
2022/04/10 01:58:23;;;;;;;5.77;2.87;;;;;;;;;;5052037;28;20427;-55
2022/04/10 02:00:49;;;;;;;12.10;3.70;;;;;;;;;;5051791;28;20236;-56
2022/04/10 02:03:15;;;;;;;7.30;3.20;;;;;;;;;;5051912;28;20434;-55
2022/04/10 02:05:41;;;;;;;9.73;3.40;;;;;;;;;;5051935;28;20435;-55
2022/04/10 02:08:07;;;;;;;6.40;3.77;;;;;;;;;;5051737;28;20446;-56
2022/04/10 02:10:34;;;;;;;5.37;3.07;;;;;;;;;;5051746;28;20192;-56
2022/04/10 02:13:00;;;;;;;6.93;2.90;;;;;;;;;;5051567;28;20475;-55
2022/04/10 02:15:27;;;;;;;8.47;3.47;;;;;;;;;;5051856;28;20836;-56
2022/04/10 02:17:53;;;;;;;5.67;2.67;;;;;;;;;;5051472;28;20580;-55
2022/04/10 02:20:19;;;;;;;9.00;3.70;;;;;;;;;;5051620;28;20450;-55
2022/04/10 02:22:45;;;;;;;8.77;3.03;;;;;;;;;;5051830;28;20196;-55
2022/04/10 02:25:11;;;;;;;5.13;3.20;;;;;;;;;;5051507;28;20457;-55
2022/04/10 02:27:37;;;;;;;7.33;3.47;;;;;;;;;;5051706;28;20215;-56
2022/04/10 02:30:03;;;;;;;10.67;2.67;;;;;;;;;;5051646;28;20446;-56
2022/04/10 02:32:31;;;;;;;7.70;3.27;;;;;;;;;;5051733;28;20281;-55
2022/04/10 02:34:57;;;;;;;6.03;2.97;;;;;;;;;;5051678;28;20438;-56
2022/04/10 02:37:23;;;;;;;4.13;2.40;;;;;;;;;;5051884;28;21192;-56
2022/04/10 02:39:49;;;;;;;6.37;3.20;;;;;;;;;;5055510;28;20454;-56
2022/04/10 02:42:14;;;;;;;10.63;3.17;;;;;;;;;;5055376;28;20686;-55
2022/04/10 02:44:41;;;;;;;10.03;3.13;;;;;;;;;;5055522;28;20201;-55
2022/04/10 02:47:07;;;;;;;5.80;2.83;;;;;;;;;;5055217;28;20449;-55
2022/04/10 02:49:34;;;;;;;9.93;3.20;;;;;;;;;;5055271;28;20438;-55
2022/04/10 02:52:00;;;;;;;8.03;3.00;;;;;;;;;;5055023;28;20482;-55
2022/04/10 02:54:26;;;;;;;6.83;2.60;;;;;;;;;;5055039;28;20445;-55
2022/04/10 02:56:52;;;;;;;6.87;2.73;;;;;;;;;;5055080;28;20227;-55
2022/04/10 02:59:18;;;;;;;8.87;3.30;;;;;;;;;;5055045;28;20563;-55
2022/04/10 03:01:44;;;;;;;5.67;2.90;;;;;;;;;;5055016;28;20239;-55
2022/04/10 03:04:10;;;;;;;6.37;3.17;;;;;;;;;;5054793;28;20430;-55
2022/04/10 03:06:37;;;;;;;7.03;3.27;;;;;;;;;;5055042;28;20456;-55
2022/04/10 03:09:03;;;;;;;7.37;3.17;;;;;;;;;;5054958;28;20651;-56
2022/04/10 03:11:29;;;;;;;8.63;3.13;;;;;;;;;;5054745;28;20984;-55
2022/04/10 03:13:55;;;;;;;9.87;2.97;;;;;;;;;;5054735;28;20442;-55
2022/04/10 03:16:21;;;;;;;8.67;3.13;;;;;;;;;;5054712;28;20231;-55
2022/04/10 03:18:47;;;;;;;7.20;3.17;;;;;;;;;;5054815;28;20482;-56
2022/04/10 03:21:13;;;;;;;12.00;3.50;;;;;;;;;;5054637;28;20479;-55
2022/04/10 03:23:41;;;;;;;9.37;3.47;;;;;;;;;;5054560;28;20212;-55
2022/04/10 03:26:07;;;;;;;6.50;3.07;;;;;;;;;;5054401;28;20834;-55
2022/04/10 03:28:33;;;;;;;7.37;2.70;;;;;;;;;;5054459;28;20514;-55
2022/04/10 03:30:59;;;;;;;12.57;3.57;;;;;;;;;;5054518;28;20203;-55
2022/04/10 03:33:25;;;;;;;7.57;3.30;;;;;;;;;;5054522;28;20481;-55
2022/04/10 03:35:52;;;;;;;7.33;2.93;;;;;;;;;;5054489;28;20497;-55
2022/04/10 03:38:18;;;;;;;6.73;3.03;;;;;;;;;;5054367;28;20554;-55
2022/04/10 03:40:46;;;;;;;8.57;2.80;;;;;;;;;;5054147;28;20517;-55
2022/04/10 03:43:12;;;;;;;7.10;2.80;;;;;;;;;;5052556;28;20184;-55
2022/04/10 03:45:38;;;;;;;5.17;3.07;;;;;;;;;;5054157;28;20430;-55
2022/04/10 03:48:05;;;;;;;9.33;3.47;;;;;;;;;;5053988;28;20485;-55
2022/04/10 03:50:31;;;;;;;7.80;3.00;;;;;;;;;;5054064;28;20439;-55
2022/04/10 03:52:57;;;;;;;10.03;3.50;;;;;;;;;;5053878;28;20581;-55
2022/04/10 03:55:23;;;;;;;7.93;2.63;;;;;;;;;;5053996;28;21048;-55
2022/04/10 03:57:50;;;;;;;10.07;3.27;;;;;;;;;;5054025;28;20206;-56
2022/04/10 04:00:16;;;;;;;6.53;3.13;;;;;;;;;;5053862;28;20236;-55
2022/04/10 04:02:42;;;;;;;7.17;3.03;;;;;;;;;;5053997;28;20793;-55
2022/04/10 04:05:09;;;;;;;11.03;3.30;;;;;;;;;;5053862;28;20459;-55
2022/04/10 04:07:36;;;;;;;8.13;3.33;;;;;;;;;;5053909;28;20446;-56
2022/04/10 04:10:02;;;;;;;10.90;3.20;;;;;;;;;;5053690;28;20423;-56
2022/04/10 04:12:28;;;;;;;7.90;3.53;;;;;;;;;;5053847;28;20475;-55
2022/04/10 04:14:55;;;;;;;5.20;2.77;;;;;;;;;;5053653;28;21036;-56
2022/04/10 04:17:21;;;;;;;8.40;3.37;;;;;;;;;;5053686;28;20208;-56
2022/04/10 04:19:50;;;;;;;8.40;3.57;;;;;;;;;;5053456;28;20441;-56
2022/04/10 04:22:16;;;;;;;10.27;3.70;;;;;;;;;;5053482;28;20200;-55
2022/04/10 04:24:42;;;;;;;8.63;3.33;;;;;;;;;;5053423;28;20453;-56
2022/04/10 04:27:08;;;;;;;7.33;3.17;;;;;;;;;;5053400;28;20200;-56
2022/04/10 04:29:34;;;;;;;9.73;3.27;;;;;;;;;;5053455;28;20435;-56
2022/04/10 04:32:01;;;;;;;8.93;3.77;;;;;;;;;;5052895;28;20228;-56
2022/04/10 04:34:27;;;;;;;10.33;3.70;;;;;;;;;;5053411;28;20200;-56
2022/04/10 04:36:53;;;;;;;7.97;3.83;;;;;;;;;;5053057;28;20446;-56
2022/04/10 04:39:19;;;;;;;5.87;3.50;;;;;;;;;;5052965;28;20442;-56
2022/04/10 04:41:46;;;;;;;13.37;3.67;;;;;;;;;;5053392;28;20453;-55
2022/04/10 04:44:12;;;;;;;9.20;3.30;;;;;;;;;;5053043;28;20427;-56
2022/04/10 04:46:38;;;;;;;13.57;3.27;;;;;;;;;;5053099;28;20531;-56
2022/04/10 04:49:05;;;;;;;9.40;3.47;;;;;;;;;;5052981;28;20954;-56
2022/04/10 04:51:34;;;;;;;8.67;3.20;;;;;;;;;;5052987;28;20208;-56
2022/04/10 04:54:01;;;;;;;8.53;3.63;;;;;;;;;;5052836;28;20445;-56
2022/04/10 04:56:27;;;;;;;6.30;3.00;;;;;;;;;;5053053;28;20526;-56
2022/04/10 04:58:53;;;;;;;10.03;3.70;;;;;;;;;;5052712;28;20450;-56
2022/04/10 05:01:19;;;;;;;11.27;3.77;;;;;;;;;;5052029;28;20266;-56
2022/04/10 05:03:45;;;;;;;8.67;3.47;;;;;;;;;;5052802;28;20200;-56
2022/04/10 05:06:12;;;;;;;10.03;3.27;;;;;;;;;;5052837;28;20196;-55
2022/04/10 05:08:39;;;;;;;6.40;3.33;;;;;;;;;;5052817;28;20201;-56
2022/04/10 05:11:08;;;;;;;9.63;3.40;;;;;;;;;;5052512;28;20438;-56
2022/04/10 05:13:35;;;;;;;9.63;3.10;;;;;;;;;;5052571;28;20462;-57
2022/04/10 05:16:01;;;;;;;7.87;3.47;;;;;;;;;;5050830;28;20443;-56
2022/04/10 05:18:27;;;;;;;10.23;3.30;;;;;;;;;;5052645;28;20445;-56
2022/04/10 05:20:53;;;;;;;11.43;3.17;;;;;;;;;;5052359;28;20207;-56
2022/04/10 05:23:21;;;;;;;8.20;3.33;;;;;;;;;;5052268;28;20431;-57
2022/04/10 05:25:48;;;;;;;12.67;4.23;;;;;;;;;;5052345;28;20431;-54
2022/04/10 05:28:14;;;;;;;5.93;3.20;;;;;;;;;;5052312;28;20435;-54
2022/04/10 05:30:40;;;;;;;8.63;3.10;;;;;;;;;;5052248;28;20797;-54
2022/04/10 05:33:06;;;;;;;13.17;3.30;;;;;;;;;;5052046;28;20525;-54
2022/04/10 05:35:33;;;;;;;11.00;3.30;;;;;;;;;;5052249;28;20485;-55
2022/04/10 05:37:59;;;;;;;5.13;2.60;;;;;;;;;;5052236;28;20795;-54
2022/04/10 05:40:26;;;;;;;7.40;2.90;;;;;;;;;;5052079;28;20442;-54
2022/04/10 05:42:52;;;;;;;6.30;3.00;;;;;;;;;;5052156;28;20196;-54
2022/04/10 05:45:18;;;;;;;8.37;3.10;;;;;;;;;;5052115;28;20430;-54
2022/04/10 05:47:44;;;;;;;8.00;2.83;;;;;;;;;;5051895;28;20196;-54
2022/04/10 05:50:11;;;;;;;10.23;2.87;;;;;;;;;;5051935;28;20234;-54
2022/04/10 05:52:37;;;;;;;6.80;3.10;;;;;;;;;;5051968;28;20471;-54
2022/04/10 05:55:03;;;;;;;7.57;3.30;;;;;;;;;;5051838;28;20439;-54
2022/04/10 05:57:31;;;;;;;9.23;3.33;;;;;;;;;;5052063;28;20447;-54
2022/04/10 05:59:57;;;;;;;6.67;2.90;;;;;;;;;;5051796;28;20466;-55
2022/04/10 06:02:23;;;;;;;10.90;2.97;;;;;;;;;;5051860;28;21012;-55
2022/04/10 06:04:49;;;;;;;9.27;2.80;;;;;;;;;;5051979;28;20200;-55
2022/04/10 06:07:14;;;;;;;7.30;2.67;;;;;;;;;;5051940;28;20204;-56
2022/04/10 06:09:40;;;;;;;7.07;3.17;;;;;;;;;;5051858;28;20200;-56
2022/04/10 06:12:07;;;;;;;8.47;2.90;;;;;;;;;;5051649;28;20694;-56
2022/04/10 06:14:35;;;;;;;8.27;3.27;;;;;;;;;;5055812;28;20443;-56
2022/04/10 06:17:00;;;;;;;7.27;3.17;;;;;;;;;;5056074;28;20447;-57
2022/04/10 06:19:27;;;;;;;5.67;2.87;;;;;;;;;;5055840;28;20442;-56
2022/04/10 06:21:53;;;;;;;8.47;2.87;;;;;;;;;;5055844;28;20203;-56
2022/04/10 06:24:21;;;;;;;8.00;2.77;;;;;;;;;;5055577;28;21243;-56
2022/04/10 06:26:49;;;;;;;8.00;3.10;;;;;;;;;;5055763;28;20960;-56
2022/04/10 06:29:15;;;;;;;7.77;3.33;;;;;;;;;;5055700;28;20438;-56
2022/04/10 06:31:42;;;;;;;6.53;2.63;;;;;;;;;;5055563;28;20588;-57
2022/04/10 06:34:08;;;;;;;9.77;3.30;;;;;;;;;;5055559;28;20434;-56
2022/04/10 06:36:34;;;;;;;8.47;2.53;;;;;;;;;;5055534;28;20435;-56
2022/04/10 06:39:00;;;;;;;11.13;3.13;;;;;;;;;;5055488;28;20476;-56
2022/04/10 06:41:26;;;;;;;10.43;3.10;;;;;;;;;;5055599;28;20254;-57
2022/04/10 06:43:52;;;;;;;9.27;3.20;;;;;;;;;;5055520;28;20245;-57
2022/04/10 06:46:18;;;;;;;13.20;3.60;;;;;;;;;;5055097;28;20617;-56
2022/04/10 06:48:45;;;;;;;9.30;3.10;;;;;;;;;;5055278;28;20438;-56
2022/04/10 06:51:11;;;;;;;8.00;2.77;;;;;;;;;;5054834;28;20544;-56
2022/04/10 06:53:37;;;;;;;7.50;2.97;;;;;;;;;;5054875;28;20488;-56
2022/04/10 06:56:04;;;;;;;6.17;2.60;;;;;;;;;;5054844;28;20204;-56
2022/04/10 06:58:30;;;;;;;8.73;2.87;;;;;;;;;;5054945;28;20728;-56
2022/04/10 07:00:56;;;;;;;5.57;3.27;;;;;;;;;;5054692;28;20458;-55
2022/04/10 07:03:22;;;;;;;8.77;2.73;;;;;;;;;;5054804;28;20785;-55
2022/04/10 07:05:49;;;;;;;10.53;2.97;;;;;;;;;;5054856;28;20258;-55
2022/04/10 07:08:15;;;;;;;10.20;2.70;;;;;;;;;;5054600;28;20269;-55
2022/04/10 07:10:41;;;;;;;5.83;2.67;;;;;;;;;;5054586;28;20930;-56
2022/04/10 07:13:08;;;;;;;7.27;2.80;;;;;;;;;;5054468;28;20277;-55
2022/04/10 07:15:34;;;;;;;7.23;2.80;;;;;;;;;;5054563;28;20858;-55
2022/04/10 07:18:00;;;;;;;9.13;2.60;;;;;;;;;;5054624;28;20492;-56
2022/04/10 07:20:26;;;;;;;4.53;2.43;;;;;;;;;;5054505;28;20443;-56
2022/04/10 07:25:39;;;;;;;7.97;3.00;;;;;;;;;;5054484;28;20928;-56
2022/04/10 07:28:05;;;;;;;8.67;2.77;;;;;;;;;;5054238;28;20431;-56
2022/04/10 07:30:31;;;;;;;8.47;2.90;;;;;;;;;;5054440;28;20192;-56
2022/04/10 07:32:58;;;;;;;7.03;2.40;;;;;;;;;;5054340;28;20474;-56
2022/04/10 07:35:27;;;;;;;9.87;3.13;;;;;;;;;;5054100;28;20438;-55
2022/04/10 07:37:54;;;;;;;7.10;2.57;;;;;;;;;;5054208;28;20205;-57
2022/04/10 07:40:20;;;;;;;8.27;2.20;;;;;;;;;;5053845;28;20802;-57
2022/04/10 07:42:46;;;;;;;6.63;2.60;;;;;;;;;;5054143;28;20485;-57
2022/04/10 07:47:58;;;;;;;6.77;2.93;;;;;;;;;;5053937;28;20421;-56
2022/04/10 07:50:24;;;;;;;6.13;2.80;;;;;;;;;;5054008;28;20200;-56
2022/04/10 07:52:50;;;;;;;3.77;2.50;;;;;;;;;;5053619;28;20896;-56
2022/04/10 07:55:17;;;;;;;5.13;2.20;;;;;;;;;;5053751;28;20258;-55
2022/04/10 07:57:43;;;;;;;5.63;2.20;;;;;;;;;;5054031;28;20291;-56
2022/04/10 08:00:11;;;;;;;5.70;2.67;;;;;;;;;;5053668;28;20327;-56
2022/04/10 08:02:38;;;;;;;5.23;2.80;;;;;;;;;;5053866;28;20192;-57
2022/04/10 08:05:04;;;;;;;7.23;2.37;;;;;;;;;;5053655;28;20212;-57
2022/04/10 08:07:30;;;;;;;9.07;2.43;;;;;;;;;;5053782;28;20757;-57
2022/04/10 08:09:56;;;;;;;4.20;1.90;;;;;;;;;;5053603;28;20279;-57
2022/04/10 08:12:24;;;;;;;8.50;2.50;;;;;;;;;;5053472;28;20650;-57
2022/04/10 08:14:50;;;;;;;5.50;2.13;;;;;;;;;;5053562;28;20667;-56
2022/04/10 08:17:16;;;;;;;5.77;2.00;;;;;;;;;;5053405;28;20299;-58
2022/04/10 08:19:42;;;;;;;5.23;1.90;;;;;;;;;;5053653;28;20232;-57
2022/04/10 08:22:08;;;;;;;5.27;2.40;;;;;;;;;;5053393;28;20227;-58
2022/04/10 08:24:34;;;;;;;7.10;2.40;;;;;;;;;;5053349;28;20240;-57
2022/04/10 08:27:01;;;;;;;7.77;2.27;;;;;;;;;;5053463;28;20196;-57
2022/04/10 08:29:28;;;;;;;6.17;2.00;;;;;;;;;;5053503;28;20210;-58
2022/04/10 08:31:54;;;;;;;4.17;2.10;;;;;;;;;;5053136;28;20210;-57
2022/04/10 08:34:20;;;;;;;7.07;2.20;;;;;;;;;;5053010;28;20204;-56
2022/04/10 08:36:46;;;;;;;3.47;1.80;;;;;;;;;;5052274;28;20615;-58
2022/04/10 08:39:12;;;;;;;5.23;2.07;;;;;;;;;;5052953;28;20299;-57
2022/04/10 08:41:38;;;;;;;5.83;1.90;;;;;;;;;;5053007;28;20407;-57
2022/04/10 08:44:05;;;;;;;4.37;2.03;;;;;;;;;;5052931;28;20200;-57
2022/04/10 08:46:35;;;;;;;5.33;2.17;;;;;;;;;;5053069;28;20230;-57
2022/04/10 08:49:02;;;;;;;7.43;2.40;;;;;;;;;;5052814;28;20199;-56
2022/04/10 08:51:28;;;;;;;5.43;2.47;;;;;;;;;;5052858;28;20196;-57
2022/04/10 08:53:55;;;;;;;6.00;2.30;;;;;;;;;;5052594;28;20269;-57
2022/04/10 08:56:22;;;;;;;4.30;2.00;;;;;;;;;;5052421;28;20238;-56
2022/04/10 08:58:48;;;;;;;5.70;2.20;;;;;;;;;;5052772;28;20200;-57
2022/04/10 09:01:17;;;;;;;8.37;2.33;;;;;;;;;;5052603;28;20252;-57
2022/04/10 09:03:45;;;;;;;6.57;1.93;;;;;;;;;;5052670;28;20290;-57
2022/04/10 09:06:11;;;;;;;6.70;2.60;;;;;;;;;;5052543;28;20204;-56
2022/04/10 09:08:38;;;;;;;10.50;2.20;;;;;;;;;;5052439;28;20227;-57
2022/04/10 09:11:05;;;;;;;4.37;1.70;;;;;;;;;;5052120;28;20250;-58
2022/04/10 09:13:38;;;;;;;7.63;2.23;;;;;;;;;;5052142;28;20243;-58
2022/04/10 09:16:08;;;;;;;4.53;1.87;;;;;;;;;;5052141;28;20730;-58
2022/04/10 09:18:47;;;;;;;4.90;1.83;;;;;;;;;;5052338;28;20203;-59
2022/04/10 09:21:13;;;;;;;5.00;1.57;;;;;;;;;;5052095;28;20211;-57
2022/04/10 09:23:39;;;;;;;6.70;2.57;;;;;;;;;;5052027;28;20240;-57
2022/04/10 09:26:09;;;;;;;6.70;2.20;;;;;;;;;;5051885;28;20515;-58
2022/04/10 09:28:42;;;;;;;4.43;2.07;;;;;;;;;;5052133;28;20667;-57
2022/04/10 09:31:23;;;;;;;6.37;2.00;;;;;;;;;;5052047;28;20797;-56
2022/04/10 09:33:50;;;;;;;4.67;1.70;;;;;;;;;;5051973;28;20243;-58
2022/04/10 09:36:27;;;;;;;5.83;1.60;;;;;;;;;;5050714;28;20904;-57
2022/04/10 09:38:53;;;;;;;4.03;1.77;;;;;;;;;;5051978;28;20290;-57
2022/04/10 09:41:20;;;;;;;3.23;1.57;;;;;;;;;;5051900;28;20208;-57
2022/04/10 09:43:46;;;;;;;3.53;1.57;;;;;;;;;;5050270;28;20231;-57
2022/04/10 09:46:13;;;;;;;2.37;1.57;;;;;;;;;;5051712;28;20196;-57
2022/04/10 09:48:39;;;;;;;3.53;2.13;;;;;;;;;;5051813;28;20684;-61
2022/04/10 09:51:10;;;;;;;3.43;1.73;;;;;;;;;;5051949;28;20549;-59
2022/04/10 09:53:36;;;;;;;4.17;1.83;;;;;;;;;;5051792;28;20600;-57
2022/04/10 09:56:03;;;;;;;6.33;1.80;;;;;;;;;;5051613;28;20670;-58
2022/04/10 09:58:29;;;;;;;3.70;1.80;;;;;;;;;;5051756;28;20651;-57
2022/04/10 10:00:56;;;;;;;5.13;2.17;;;;;;;;;;5050455;28;20243;-57
2022/04/10 10:03:22;;;;;;;4.97;1.77;;;;;;;;;;5051694;28;20263;-56
2022/04/10 10:05:49;;;;;;;3.73;1.70;;;;;;;;;;5051735;28;20266;-56
2022/04/10 10:08:17;;;;;;;5.03;1.63;;;;;;;;;;5051529;28;20275;-57
2022/04/10 10:10:44;;;;;;;3.90;1.90;;;;;;;;;;5051692;28;20210;-58
2022/04/10 10:13:12;;;;;;;3.40;1.60;;;;;;;;;;5051302;28;20299;-58
2022/04/10 10:15:38;;;;;;;5.37;2.00;;;;;;;;;;5051387;28;20761;-57
2022/04/10 10:18:06;;;;;;;2.67;1.53;;;;;;;;;;5051416;28;20200;-56
2022/04/10 10:20:32;;;;;;;3.17;1.60;;;;;;;;;;5051656;28;20201;-55
2022/04/10 10:23:00;;;;;;;5.83;1.60;;;;;;;;;;5051630;28;20200;-60
2022/04/10 10:25:30;;;;;;;3.20;1.60;;;;;;;;;;5051465;28;20223;-60
2022/04/10 10:28:16;;;;;;;4.10;1.73;;;;;;;;;;5051382;28;20201;-59
2022/04/10 10:30:49;;;;;;;3.53;1.63;;;;;;;;;;5051496;28;20547;-57
2022/04/10 10:33:16;;;;;;;2.80;1.53;;;;;;;;;;5051253;28;20240;-57
2022/04/10 10:35:43;;;;;;;5.37;1.70;;;;;;;;;;5051605;28;20261;-56
2022/04/10 10:38:19;;;;;;;2.97;1.83;;;;;;;;;;5051201;28;20569;-56
2022/04/10 10:40:47;;;;;;;4.57;1.80;;;;;;;;;;5051256;28;20208;-56
2022/04/10 10:43:18;;;;;;;4.03;1.50;;;;;;;;;;5051373;28;20201;-56
2022/04/10 10:45:44;;;;;;;2.93;1.70;;;;;;;;;;5051444;28;20662;-56
2022/04/10 10:48:24;;;;;;;5.00;1.90;;;;;;;;;;5051156;28;20689;-56
2022/04/10 10:50:50;;;;;;;4.17;1.70;;;;;;;;;;5051336;28;20257;-56
2022/04/10 10:53:23;;;;;;;4.07;1.70;;;;;;;;;;5051159;28;20228;-55
2022/04/10 10:55:51;;;;;;;3.40;1.67;;;;;;;;;;5051293;28;20208;-56
2022/04/10 10:58:30;;;;;;;4.60;1.80;;;;;;;;;;5051202;28;20600;-57
2022/04/10 11:01:00;;;;;;;2.60;1.60;;;;;;;;;;5054810;28;20235;-55
2022/04/10 11:03:29;;;;;;;2.97;1.33;;;;;;;;;;5054806;28;20675;-55
2022/04/10 11:06:03;;;;;;;6.20;2.03;;;;;;;;;;5054807;28;20200;-57
2022/04/10 11:08:40;;;;;;;2.87;1.80;;;;;;;;;;5054892;28;20195;-55
2022/04/10 11:11:07;;;;;;;4.27;2.30;;;;;;;;;;5054940;28;20559;-55
2022/04/10 11:13:37;;;;;;;3.33;1.60;;;;;;;;;;5054576;28;20729;-57
2022/04/10 11:16:09;;;;;;;4.27;1.60;;;;;;;;;;5054876;28;20204;-56
2022/04/10 11:18:38;;;;;;;3.67;1.90;;;;;;;;;;5054727;28;20208;-56
2022/04/10 11:21:10;;;;;;;2.97;1.40;;;;;;;;;;5054308;28;20212;-57
2022/04/10 11:23:41;;;;;;;2.70;1.17;;;;;;;;;;5054424;28;20565;-58
2022/04/10 11:26:13;;;;;;;2.63;1.23;;;;;;;;;;5054338;28;20745;-57
2022/04/10 11:28:54;;;;;;;2.30;1.53;;;;;;;;;;5054311;28;20232;-57
2022/04/10 11:31:30;;;;;;;1.27;1.03;;;;;;;;;;5052370;28;20282;-58
2022/04/10 11:34:06;;;;;;;4.60;1.70;;;;;;;;;;5054283;28;20238;-58
2022/04/10 11:36:44;;;;;;;1.93;1.13;;;;;;;;;;5054323;28;20195;-58
2022/04/10 11:39:10;;;;;;;3.03;1.30;;;;;;;;;;5054079;28;20200;-59
2022/04/10 11:41:38;;;;;;;2.40;1.47;;;;;;;;;;5054232;28;20200;-55
2022/04/10 11:44:07;;;;;;;4.40;1.47;;;;;;;;;;5054146;28;20211;-58
2022/04/10 11:46:34;;;;;;;5.00;1.53;;;;;;;;;;5053737;28;20272;-57
2022/04/10 11:49:00;;;;;;;3.97;1.63;;;;;;;;;;5054103;28;20547;-55
2022/04/10 11:51:26;;;;;;;6.70;1.43;;;;;;;;;;5053709;28;20246;-57
2022/04/10 11:53:54;;;;;;;2.63;1.77;;;;;;;;;;5053794;28;20257;-57
2022/04/10 11:56:21;;;;;;;6.13;1.70;;;;;;;;;;5053875;28;20306;-57
2022/04/10 11:58:48;;;;;;;3.67;1.60;;;;;;;;;;5053920;28;20208;-56
2022/04/10 12:01:15;;;;;;;2.47;1.50;;;;;;;;;;5053764;28;20240;-57
2022/04/10 12:03:43;;;;;;;4.57;1.70;;;;;;;;;;5053698;28;20188;-56
2022/04/10 12:06:09;;;;;;;2.17;1.50;;;;;;;;;;5053743;28;20203;-55
2022/04/10 12:08:36;;;;;;;3.27;1.63;;;;;;;;;;5053793;28;20211;-55
2022/04/10 12:11:03;;;;;;;4.03;1.60;;;;;;;;;;5053833;28;20204;-57
2022/04/10 12:13:30;;;;;;;3.27;1.67;;;;;;;;;;5053691;28;20247;-56
2022/04/10 12:16:00;;;;;;;3.17;1.53;;;;;;;;;;5053563;28;20284;-56
2022/04/10 12:18:26;;;;;;;4.13;1.60;;;;;;;;;;5053603;28;20208;-57
2022/04/10 12:20:58;;;;;;;3.73;1.57;;;;;;;;;;5053656;28;20720;-56
2022/04/10 12:23:25;;;;;;;7.50;2.07;;;;;;;;;;5053325;28;20200;-56
2022/04/10 12:25:51;;;;;;;3.07;1.80;;;;;;;;;;5052304;28;20204;-56
2022/04/10 12:28:18;;;;;;;3.23;1.53;;;;;;;;;;5052899;28;20250;-57
2022/04/10 12:30:44;;;;;;;2.83;1.43;;;;;;;;;;5053475;28;20299;-56
2022/04/10 12:33:12;;;;;;;3.87;1.20;;;;;;;;;;5053206;28;20285;-56
2022/04/10 12:35:38;;;;;;;1.83;1.20;;;;;;;;;;5053326;28;20207;-57
2022/04/10 12:38:05;;;;;;;2.90;1.30;;;;;;;;;;5052878;28;20222;-56
2022/04/10 12:40:31;;;;;;;2.67;1.40;;;;;;;;;;5053369;28;20242;-56
2022/04/10 12:42:58;;;;;;;3.20;1.20;;;;;;;;;;5053085;28;20200;-56
2022/04/10 12:45:24;;;;;;;3.77;1.30;;;;;;;;;;5052935;28;20228;-56
2022/04/10 12:47:50;;;;;;;3.03;1.60;;;;;;;;;;5053078;28;20601;-56
2022/04/10 12:50:18;;;;;;;2.00;1.57;;;;;;;;;;5053015;28;20200;-57
2022/04/10 12:52:45;;;;;;;3.57;1.50;;;;;;;;;;5052787;28;20564;-57
2022/04/10 12:55:15;;;;;;;4.07;1.60;;;;;;;;;;5052836;28;20203;-56
2022/04/10 12:57:43;;;;;;;4.47;1.77;;;;;;;;;;5052919;28;20196;-56
2022/04/10 13:00:22;;;;;;;3.27;1.50;;;;;;;;;;5052367;28;20244;-56
2022/04/10 13:02:48;;;;;;;2.13;1.40;;;;;;;;;;5052259;28;20654;-56
2022/04/10 13:05:15;;;;;;;1.63;1.30;;;;;;;;;;5052523;28;20222;-56
2022/04/10 13:07:54;;;;;;;4.07;1.53;;;;;;;;;;5052778;28;20223;-57
2022/04/10 13:10:22;;;;;;;1.57;1.10;;;;;;;;;;5052547;28;20230;-56
2022/04/10 13:12:47;;;;;;;3.00;1.50;;;;;;;;;;5052541;28;20273;-57
2022/04/10 13:15:28;;;;;;;2.43;1.23;;;;;;;;;;5052606;28;20200;-56
2022/04/10 13:17:56;;;;;;;1.57;1.00;;;;;;;;;;5052650;28;20250;-56
2022/04/10 13:20:24;;;;;;;2.70;1.10;;;;;;;;;;5052350;28;20215;-58
2022/04/10 13:22:50;;;;;;;1.97;1.10;;;;;;;;;;5051820;28;20191;-56
2022/04/10 13:25:17;;;;;;;2.20;1.30;;;;;;;;;;5052314;28;20226;-56
2022/04/10 13:27:43;;;;;;;2.03;0.80;;;;;;;;;;5052643;28;20246;-56
2022/04/10 13:30:13;;;;;;;4.27;1.17;;;;;;;;;;5050251;28;20604;-55
2022/04/10 13:32:39;;;;;;;2.87;1.30;;;;;;;;;;5050989;28;20220;-55
2022/04/10 13:35:08;;;;;;;2.80;1.40;;;;;;;;;;5051973;28;20219;-56
2022/04/10 13:37:34;;;;;;;4.53;1.70;;;;;;;;;;5051887;28;20200;-56
2022/04/10 13:40:00;;;;;;;2.90;1.57;;;;;;;;;;5052255;28;20199;-56
2022/04/10 13:42:27;;;;;;;4.03;1.30;;;;;;;;;;5051583;28;20633;-56
2022/04/10 13:44:53;;;;;;;2.53;1.43;;;;;;;;;;5051804;28;20206;-56
2022/04/10 13:47:19;;;;;;;2.73;1.27;;;;;;;;;;5051750;28;20251;-56
2022/04/10 13:49:45;;;;;;;3.43;1.37;;;;;;;;;;5052056;28;20204;-55
2022/04/10 13:52:11;;;;;;;2.17;1.20;;;;;;;;;;5051598;28;20204;-55
2022/04/10 13:54:37;;;;;;;3.07;1.67;;;;;;;;;;5051952;28;20204;-55
2022/04/10 13:57:03;;;;;;;2.93;1.50;;;;;;;;;;5051645;28;20283;-57
2022/04/10 13:59:31;;;;;;;2.20;1.40;;;;;;;;;;5051732;28;20212;-55
2022/04/10 14:01:57;;;;;;;2.07;1.43;;;;;;;;;;5051625;28;20667;-55
2022/04/10 14:04:23;;;;;;;2.63;1.33;;;;;;;;;;5051655;28;20269;-55
2022/04/10 14:06:49;;;;;;;4.07;1.57;;;;;;;;;;5051642;28;20231;-56
2022/04/10 14:09:15;;;;;;;2.93;1.37;;;;;;;;;;5051735;28;20273;-57
2022/04/10 14:11:41;;;;;;;4.30;1.77;;;;;;;;;;5051558;28;20535;-56
2022/04/10 14:14:07;;;;;;;1.83;1.37;;;;;;;;;;5051459;28;20235;-55
2022/04/10 14:16:34;;;;;;;3.73;1.57;;;;;;;;;;5051539;28;20207;-55
2022/04/10 14:19:01;;;;;;;3.03;1.53;;;;;;;;;;5051489;28;20214;-56
2022/04/10 14:21:27;;;;;;;2.50;1.37;;;;;;;;;;5051369;28;20207;-55
2022/04/10 14:23:53;;;;;;;3.33;1.80;;;;;;;;;;5051296;28;20219;-55
2022/04/10 14:26:19;;;;;;;3.67;2.10;;;;;;;;;;5051153;28;20204;-56
2022/04/10 14:28:45;;;;;;;2.47;1.60;;;;;;;;;;5051556;28;20199;-56
2022/04/10 14:31:11;;;;;;;2.70;1.50;;;;;;;;;;5051229;28;20227;-54
2022/04/10 14:33:38;;;;;;;1.67;1.33;;;;;;;;;;5051774;28;20297;-54
2022/04/10 14:36:04;;;;;;;3.87;1.60;;;;;;;;;;5055184;28;20212;-56
2022/04/10 14:38:31;;;;;;;3.23;1.37;;;;;;;;;;5055269;28;20200;-57
2022/04/10 14:40:57;;;;;;;3.73;1.60;;;;;;;;;;5055212;28;20203;-56
2022/04/10 14:43:23;;;;;;;1.53;1.10;;;;;;;;;;5054897;28;20250;-54
2022/04/10 14:45:49;;;;;;;1.90;1.10;;;;;;;;;;5055255;28;20200;-56